To NAV CANADA Home Page Login to a new session Search on AWWS site Disclaimer Vers la page française équivalente Tips FAQ What's new on the site To the Forecasts and Observations / NOTAM section To "File a Flight Plan" website Publications and other links Update of the User's profile FIC Telephone Numbers My Weather Data Folder Route Weather Data Regional Weather Data Local Weather Data To the Forecasts and Observations / NOTAM section
Request Generated 03/19/2019 at 23:06:47 UTC . Weather information available at that time is displayed.

METAR/TAF

BRANDON MUNICIPALITY/MB    

METAR CYBR 192300Z 26013G22KT 15SM FEW250 03/M01 A2992 RMK CI2 SLP160=
METAR CYBR 192200Z 24012G21KT 15SM FEW160 SCT250 03/M02 A2993 RMK AC1CI3 AC TR SLP162=
METAR CYBR 192100Z 24012KT 15SM FEW160 SCT250 03/M02 A2995 RMK AC1CI2 SLP168=

TAF CYBR 191738Z 1918/2006 26012KT P6SM SCT100 BKN200
BECMG 1919/1921 26018G28KT
FM192100 26018G28KT P6SM FEW200
BECMG 2001/2003 31012KT
RMK NXT FCST BY 200000Z=
Your time UTC time
Weather data provided by Environment Canada and NAV CANADA